Terminal Aerodrome Forecast
Issued by NWS Springfield, MO

Home | Current Version | Previous Version | Graphics & Text | Print | Product List | Glossary On
Versions: 1 2 3 4 5 6 7 8 9 10 11 12 13 14 15 16 17 18 19 20 21 22 23 24 25 26
491
FTUS43 KSGF 222354 CCB
TAFSGF
TAF COR
KSGF 222354Z 2300/2324 26024G36KT P6SM -RASN BKN035
     FM230400 29023G32KT P6SM -RASN OVC020
     FM230600 30022G31KT P6SM -RASN OVC015
     FM230800 30018G29KT P6SM OVC015
     FM231400 30011G23KT P6SM BKN020
     FM231600 31011G20KT P6SM SCT015=

USA.gov is the U.S. government's official web portal to all federal, state and local government web resources and services.